Capitol Logistics 7490

Operating for MZN



KBWI
Baltimore/Washington International Airport
Baltimore, Maryland
KPHX
Phoenix Sky Harbor International Airport
Phoenix, Arizona

Activity Log

Date Flight Route Aircraft Duration
06/23/2021 CPX7490 TERPZ7 OTTTO COLNS J134 LBL J134 GUP EAGUL6 B763 4h 30m

Route Details

Aircraft Information
Group: North America Fleet
Types: B738,B752,B762,B763
Route Data
Distance: 1735nm
Duration: 4h 44m
Recm'd Route: TERPZ7 OTTTO COLNS J134 LBL J134 GUP EAGUL6
Origin Wx: KBWI 160654Z 00000KT 10SM FEW250 19/16 A2981 RMK AO2 SLP093 T01940161
Dest. Wx: KPHX 160651Z 06010KT 10SM CLR 23/M08 A3003 RMK AO2 SLP156 T02281078 402890133
Notes:

Financial History
Total Freight: 92,831lbs
Average Load: 92,831lbs/flt
Fuel Used: 40,784lbs
Avg. Fuel Used: 40,784lbs/flt
Fuel Expense: $12,235
Avg. Fuel Expense: $12,235
Avg. Fuel Cost: $0.30/lbs
Total Gross Income: $221,866
Pilot Pay: $239
Total Expenses: $27,864
Total Revenue: $180,688
Average Revenue: $221,866.09